createdAt,value
2024-01-11T00:00:33.576Z,46.38
2024-01-11T00:02:35.952Z,41.80
2024-01-11T00:04:41.244Z,50.65
2024-01-11T00:06:45.670Z,40.70
2024-01-11T00:08:49.241Z,41.78
2024-01-11T00:10:53.881Z,43.03
2024-01-11T00:12:56.411Z,44.75
2024-01-11T00:15:02.364Z,39.50
2024-01-11T00:17:06.264Z,45.03
2024-01-11T00:19:09.588Z,48.92
2024-01-11T00:21:12.045Z,43.35
2024-01-11T00:23:15.476Z,38.58
2024-01-11T00:25:18.978Z,43.28
2024-01-11T00:27:23.710Z,36.97
2024-01-11T00:29:27.101Z,39.28
2024-01-11T00:31:30.422Z,34.72
2024-01-11T00:33:33.778Z,34.88
2024-01-11T00:35:37.102Z,31.80
2024-01-11T00:37:41.012Z,35.60
2024-01-11T00:39:44.947Z,32.17
2024-01-11T00:41:48.332Z,34.47
2024-01-11T00:43:53.017Z,30.50
2024-01-11T00:45:55.444Z,32.45
2024-01-11T00:47:58.761Z,34.60
2024-01-11T00:50:02.159Z,35.08
2024-01-11T00:52:06.214Z,32.15
2024-01-11T00:54:10.306Z,36.65
2024-01-11T00:56:18.867Z,30.27
2024-01-11T00:58:22.171Z,30.33
2024-01-11T01:00:26.692Z,31.73
2024-01-11T01:02:30.347Z,31.27
2024-01-11T01:04:33.872Z,34.55
2024-01-11T01:06:36.134Z,39.67
2024-01-11T01:08:39.368Z,42.83
2024-01-11T01:10:41.599Z,33.95
2024-01-11T01:12:44.750Z,36.50
2024-01-11T01:16:52.485Z,35.63
2024-01-11T01:18:55.938Z,32.55
2024-01-11T01:20:59.375Z,29.40
2024-01-11T01:23:03.214Z,31.80
2024-01-11T01:25:07.586Z,28.80
2024-01-11T01:27:11.046Z,32.33
2024-01-11T01:29:15.164Z,35.38
2024-01-11T01:31:17.574Z,29.42
2024-01-11T01:33:22.275Z,31.92
2024-01-11T01:35:25.615Z,28.90
2024-01-11T01:37:28.864Z,34.55
2024-01-11T01:39:32.172Z,30.95
2024-01-11T01:41:35.537Z,24.20
2024-01-11T01:43:38.942Z,29.80
2024-01-11T01:45:42.289Z,29.48
2024-01-11T01:47:46.641Z,30.85
2024-01-11T01:49:51.361Z,30.02
2024-01-11T01:51:55.860Z,34.08
2024-01-11T01:54:00.891Z,36.78
2024-01-11T01:56:06.197Z,32.42
2024-01-11T01:58:08.534Z,38.42
2024-01-11T02:00:14.600Z,40.08
2024-01-11T02:02:18.526Z,42.05
2024-01-11T02:04:24.037Z,41.17
2024-01-11T02:06:35.234Z,43.13
2024-01-11T02:08:42.138Z,38.70
2024-01-11T02:10:45.111Z,39.80
2024-01-11T02:12:49.012Z,36.25
2024-01-11T02:14:51.643Z,35.85
2024-01-11T02:16:54.955Z,38.53
2024-01-11T02:18:57.405Z,36.67
2024-01-11T02:21:00.752Z,33.47
2024-01-11T02:25:13.217Z,34.10
2024-01-11T02:27:16.396Z,31.42
2024-01-11T02:29:19.705Z,34.92
2024-01-11T02:31:23.294Z,33.38
2024-01-11T02:33:26.964Z,36.00
2024-01-11T02:35:30.814Z,32.63
2024-01-11T02:37:34.306Z,33.35
2024-01-11T02:39:37.759Z,32.55
2024-01-11T02:41:42.673Z,32.58
2024-01-11T02:43:50.131Z,33.05
2024-01-11T02:45:57.424Z,33.83
2024-01-11T02:48:00.955Z,32.47
2024-01-11T02:50:04.516Z,31.67
2024-01-11T02:52:08.166Z,30.27
2024-01-11T02:54:11.520Z,33.50
2024-01-11T02:56:13.906Z,34.28
2024-01-11T02:58:19.536Z,34.70
2024-01-11T03:00:22.738Z,32.67
2024-01-11T03:02:25.329Z,37.50
2024-01-11T03:04:28.531Z,35.22
2024-01-11T03:06:30.891Z,32.55
2024-01-11T03:08:34.390Z,34.17
2024-01-11T03:10:39.895Z,35.63
2024-01-11T03:12:43.193Z,33.30
2024-01-11T03:14:47.862Z,35.78
2024-01-11T03:16:51.063Z,33.67
2024-01-11T03:18:54.419Z,30.75
2024-01-11T03:20:57.703Z,34.53
2024-01-11T03:23:01.013Z,34.38
2024-01-11T03:25:04.505Z,33.80
2024-01-11T03:27:07.915Z,37.10
2024-01-11T03:29:11.200Z,34.15
2024-01-11T03:31:16.006Z,34.92
2024-01-11T03:33:19.520Z,34.60
2024-01-11T03:35:23.299Z,30.75
2024-01-11T03:37:26.525Z,32.88
2024-01-11T03:39:29.764Z,32.22
2024-01-11T03:41:32.987Z,31.67
2024-01-11T03:43:36.389Z,39.80
2024-01-11T03:45:39.608Z,31.83
2024-01-11T03:47:45.208Z,33.15
2024-01-11T03:49:48.509Z,35.30
2024-01-11T03:51:50.837Z,37.03
2024-01-11T03:53:54.166Z,35.00
2024-01-11T03:55:57.879Z,37.63
2024-01-11T03:58:01.239Z,34.42
2024-01-11T04:00:10.058Z,35.88
2024-01-11T04:02:15.171Z,36.72
2024-01-11T04:04:19.764Z,34.83
2024-01-11T04:06:22.971Z,34.33
2024-01-11T04:08:26.441Z,39.17
2024-01-11T04:10:29.676Z,33.03
2024-01-11T04:12:33.057Z,34.25
2024-01-11T04:14:40.287Z,29.17
2024-01-11T04:16:44.285Z,35.47
2024-01-11T04:18:47.560Z,35.35
2024-01-11T04:20:52.234Z,33.45
2024-01-11T04:22:55.589Z,37.67
2024-01-11T04:24:58.897Z,33.75
2024-01-11T04:27:02.186Z,32.58
2024-01-11T04:29:05.565Z,35.50
2024-01-11T04:31:09.746Z,38.30
2024-01-11T04:33:13.258Z,34.22
2024-01-11T04:35:16.727Z,34.58
2024-01-11T04:37:21.718Z,32.13
2024-01-11T04:39:25.017Z,33.05
2024-01-11T04:41:28.373Z,35.35
2024-01-11T04:43:30.627Z,36.08
2024-01-11T04:45:34.775Z,32.67
2024-01-11T04:47:39.058Z,33.95
2024-01-11T04:49:42.384Z,37.33
2024-01-11T04:51:45.656Z,37.60
2024-01-11T04:53:50.445Z,33.38
2024-01-11T04:55:53.644Z,40.00
2024-01-11T04:57:56.985Z,36.03
2024-01-11T05:00:02.453Z,33.72
2024-01-11T05:02:07.337Z,35.10
2024-01-11T05:04:11.279Z,39.53
2024-01-11T05:06:17.717Z,33.85
2024-01-11T05:08:21.062Z,34.25
2024-01-11T05:10:26.580Z,39.53
2024-01-11T05:12:29.854Z,36.85
2024-01-11T05:14:33.228Z,37.03
2024-01-11T05:16:36.801Z,39.47
2024-01-11T05:18:40.070Z,41.15
2024-01-11T05:20:43.710Z,39.03
2024-01-11T05:22:47.121Z,38.45
2024-01-11T05:24:50.408Z,33.28
2024-01-11T05:26:55.867Z,35.05
2024-01-11T05:28:59.143Z,34.17
2024-01-11T05:31:01.622Z,35.95
2024-01-11T05:33:05.618Z,38.60
2024-01-11T05:35:11.431Z,36.03
2024-01-11T05:37:16.440Z,38.45
2024-01-11T05:39:19.721Z,36.88
2024-01-11T05:41:22.958Z,39.92
2024-01-11T05:43:27.738Z,37.70
2024-01-11T05:45:40.839Z,35.33
2024-01-11T05:47:50.874Z,39.80
2024-01-11T05:49:54.954Z,35.90
2024-01-11T05:51:58.388Z,36.30
2024-01-11T05:54:01.644Z,39.25
2024-01-11T05:56:10.713Z,34.33
2024-01-11T05:58:14.161Z,34.28
2024-01-11T06:00:20.355Z,37.75
2024-01-11T06:02:24.810Z,37.50
2024-01-11T06:04:28.240Z,36.85
2024-01-11T06:06:31.483Z,38.72
2024-01-11T06:08:34.809Z,38.00
2024-01-11T06:10:37.057Z,33.22
2024-01-11T06:12:40.359Z,40.47
2024-01-11T06:14:43.675Z,34.22
2024-01-11T06:16:48.456Z,36.92
2024-01-11T06:18:52.844Z,35.83
2024-01-11T06:20:56.302Z,37.88
2024-01-11T06:22:58.560Z,38.58
2024-01-11T06:25:02.676Z,37.20
2024-01-11T06:27:07.693Z,38.97
2024-01-11T06:29:10.990Z,40.25
2024-01-11T06:31:14.534Z,40.58
2024-01-11T06:33:19.281Z,37.97
2024-01-11T06:35:22.496Z,40.70
2024-01-11T06:37:25.805Z,39.13
2024-01-11T06:39:29.075Z,36.85
2024-01-11T06:41:32.513Z,36.00
2024-01-11T06:43:36.061Z,42.65
2024-01-11T06:45:40.070Z,36.38
2024-01-11T06:47:43.393Z,38.63
2024-01-11T06:49:48.360Z,36.47
2024-01-11T06:51:50.752Z,31.58
2024-01-11T06:53:54.230Z,38.40
2024-01-11T06:55:57.560Z,37.97
2024-01-11T06:58:02.944Z,38.13
2024-01-11T07:00:08.282Z,35.35
2024-01-11T07:02:11.601Z,39.15
2024-01-11T07:04:14.959Z,35.80
2024-01-11T07:06:19.820Z,35.30
2024-01-11T07:08:23.357Z,35.47
2024-01-11T07:10:26.744Z,37.63
2024-01-11T07:12:29.944Z,40.50
2024-01-11T07:14:33.328Z,43.63
2024-01-11T07:16:36.606Z,40.92
2024-01-11T07:18:39.920Z,39.95
2024-01-11T07:20:43.395Z,40.80
2024-01-11T07:22:48.045Z,39.25
2024-01-11T07:24:51.285Z,41.33
2024-01-11T07:26:55.033Z,42.92
2024-01-11T07:28:58.692Z,38.40
2024-01-11T07:31:03.140Z,45.17
2024-01-11T07:33:06.920Z,35.10
2024-01-11T07:35:14.275Z,41.72
2024-01-11T07:37:19.828Z,45.63
2024-01-11T07:39:25.574Z,41.95
2024-01-11T07:41:28.986Z,38.17
2024-01-11T07:43:44.990Z,40.00
2024-01-11T07:45:52.736Z,37.90
2024-01-11T07:47:56.045Z,34.63
2024-01-11T07:49:59.329Z,35.90
2024-01-11T07:52:02.631Z,36.75
2024-01-11T07:54:06.200Z,35.83
2024-01-11T07:56:11.850Z,36.50
2024-01-11T07:58:16.192Z,35.08
2024-01-11T08:00:19.881Z,37.45
2024-01-11T08:02:24.272Z,37.35
2024-01-11T08:04:27.640Z,35.47
2024-01-11T08:06:33.267Z,32.92
2024-01-11T08:08:37.529Z,35.10
2024-01-11T08:10:40.865Z,36.58
2024-01-11T08:12:45.710Z,36.22
2024-01-11T08:14:48.673Z,39.38
2024-01-11T08:18:55.515Z,34.30
2024-01-11T08:20:59.760Z,32.20
2024-01-11T08:23:04.678Z,41.67
2024-01-11T08:25:08.039Z,40.63
2024-01-11T08:27:11.344Z,39.67
2024-01-11T08:29:16.717Z,38.78
2024-01-11T08:31:20.010Z,37.17
2024-01-11T08:33:23.427Z,35.95
2024-01-11T08:35:27.428Z,44.75
2024-01-11T08:37:29.721Z,47.20
2024-01-11T08:39:32.950Z,43.88
2024-01-11T08:41:37.837Z,41.75
2024-01-11T08:43:41.961Z,40.97
2024-01-11T08:45:45.916Z,41.03
2024-01-11T08:47:49.377Z,43.58
2024-01-11T08:49:51.795Z,38.97
2024-01-11T08:51:54.992Z,40.33
2024-01-11T08:53:58.581Z,46.00
2024-01-11T08:56:02.706Z,56.80
2024-01-11T08:58:06.124Z,43.50
2024-01-11T09:00:10.565Z,47.28
2024-01-11T09:02:18.473Z,51.55
2024-01-11T09:04:23.542Z,44.70
2024-01-11T09:06:27.232Z,46.78
2024-01-11T09:08:31.869Z,41.88
2024-01-11T09:10:35.841Z,40.95
2024-01-11T09:12:39.380Z,40.50
2024-01-11T09:14:41.915Z,46.67
2024-01-11T09:16:45.980Z,40.60
2024-01-11T09:18:50.691Z,44.90
2024-01-11T09:20:54.940Z,42.08
2024-01-11T09:22:58.374Z,42.63
2024-01-11T09:25:01.590Z,43.35
2024-01-11T09:27:05.374Z,39.30
2024-01-11T09:29:08.690Z,38.83
2024-01-11T09:31:12.441Z,41.60
2024-01-11T09:33:15.993Z,37.15
2024-01-11T09:35:20.764Z,42.90
2024-01-11T09:37:23.115Z,39.08
2024-01-11T09:39:26.906Z,47.22
2024-01-11T09:41:32.895Z,42.20
2024-01-11T09:43:36.865Z,50.03
2024-01-11T09:45:40.326Z,40.88
2024-01-11T09:47:43.285Z,40.78
2024-01-11T09:49:51.978Z,40.28
2024-01-11T09:51:58.005Z,41.97
2024-01-11T09:54:02.086Z,39.67
2024-01-11T09:56:10.207Z,48.40
2024-01-11T09:58:14.995Z,41.78
2024-01-11T10:00:24.404Z,40.58
2024-01-11T10:02:28.124Z,44.08
2024-01-11T10:04:31.907Z,45.17
2024-01-11T10:06:38.255Z,43.15
2024-01-11T10:08:44.726Z,48.60
2024-01-11T10:10:49.312Z,42.50
2024-01-11T10:12:52.934Z,44.53
2024-01-11T10:14:56.741Z,46.22
2024-01-11T10:16:59.196Z,43.28
2024-01-11T10:19:02.764Z,50.17
2024-01-11T10:21:06.860Z,46.00
2024-01-11T10:23:11.571Z,42.97
2024-01-11T10:25:19.168Z,45.42
2024-01-11T10:27:22.776Z,45.28
2024-01-11T10:29:33.122Z,45.67
2024-01-11T10:31:36.434Z,49.45
2024-01-11T10:33:39.052Z,44.15
2024-01-11T10:35:43.374Z,46.95
2024-01-11T10:37:47.223Z,45.17
2024-01-11T10:39:52.911Z,54.90
2024-01-11T10:42:08.635Z,46.08
2024-01-11T10:44:21.613Z,40.50
2024-01-11T10:46:28.725Z,47.13
2024-01-11T10:48:34.088Z,41.35
2024-01-11T10:50:41.066Z,44.30
2024-01-11T10:52:55.669Z,52.78
2024-01-11T10:55:01.469Z,45.72
2024-01-11T10:57:08.739Z,40.33
2024-01-11T10:59:14.661Z,42.85
2024-01-11T11:01:20.045Z,46.35
2024-01-11T11:03:26.718Z,43.60
2024-01-11T11:05:31.226Z,46.83
2024-01-11T11:07:37.676Z,40.53
2024-01-11T11:09:45.311Z,42.65
2024-01-11T11:11:49.615Z,41.90
2024-01-11T11:13:56.415Z,38.92
2024-01-11T11:16:01.981Z,41.50
2024-01-11T11:18:08.394Z,39.15
2024-01-11T11:20:14.676Z,38.97
2024-01-11T11:22:20.501Z,41.85
2024-01-11T11:24:24.063Z,48.40
2024-01-11T11:26:30.000Z,42.17
2024-01-11T11:28:35.930Z,44.10
2024-01-11T11:30:44.213Z,39.22
2024-01-11T11:32:48.571Z,36.50
2024-01-11T11:34:53.771Z,38.50
2024-01-11T11:36:58.599Z,39.42
2024-01-11T11:39:03.779Z,42.47
2024-01-11T11:41:09.125Z,42.05
2024-01-11T11:43:12.358Z,37.97
2024-01-11T11:45:27.038Z,34.70
2024-01-11T11:47:38.560Z,44.80
2024-01-11T11:50:01.893Z,39.10
2024-01-11T11:52:05.833Z,38.67
2024-01-11T11:54:11.856Z,38.55
2024-01-11T11:56:17.830Z,41.70
2024-01-11T11:58:21.464Z,37.10
2024-01-11T12:00:25.713Z,42.35
2024-01-11T12:02:29.646Z,41.03
2024-01-11T12:04:34.739Z,41.03
2024-01-11T12:06:38.196Z,40.50
2024-01-11T12:08:44.554Z,40.00
2024-01-11T12:10:48.264Z,37.22
2024-01-11T12:12:53.674Z,42.35
2024-01-11T12:14:57.102Z,41.85
2024-01-11T12:17:02.925Z,46.80
2024-01-11T12:19:08.588Z,43.40
2024-01-11T12:21:13.408Z,41.45
2024-01-11T12:23:18.840Z,39.47
2024-01-11T12:25:23.587Z,43.33
2024-01-11T12:27:27.493Z,41.63
2024-01-11T12:29:39.832Z,47.15
2024-01-11T12:31:48.133Z,43.72
2024-01-11T12:33:52.410Z,43.17
2024-01-11T12:35:55.206Z,40.70
2024-01-11T12:38:03.098Z,47.97
2024-01-11T12:40:11.623Z,39.08
2024-01-11T12:42:15.904Z,44.97
2024-01-11T12:44:21.253Z,44.38
2024-01-11T12:46:25.202Z,40.85
2024-01-11T12:48:28.998Z,40.67
2024-01-11T12:50:34.401Z,45.60
2024-01-11T12:52:37.747Z,39.45
2024-01-11T12:54:42.488Z,41.97
2024-01-11T12:56:46.730Z,38.20
2024-01-11T12:58:50.249Z,41.40
2024-01-11T13:00:53.200Z,41.72
2024-01-11T13:02:57.535Z,41.53
2024-01-11T13:05:04.020Z,41.72
2024-01-11T13:07:08.182Z,40.75
2024-01-11T13:09:11.811Z,45.67
2024-01-11T13:11:18.397Z,43.90
2024-01-11T13:13:23.685Z,44.38
2024-01-11T13:15:27.655Z,43.88
2024-01-11T13:17:31.022Z,39.35
2024-01-11T13:19:35.951Z,42.17
2024-01-11T13:21:39.888Z,48.15
2024-01-11T13:23:43.833Z,45.58
2024-01-11T13:25:48.905Z,43.38
2024-01-11T13:27:54.351Z,43.28
2024-01-11T13:29:57.767Z,44.95
2024-01-11T13:32:03.723Z,43.40
2024-01-11T13:34:09.034Z,48.92
2024-01-11T13:36:11.456Z,42.75
2024-01-11T13:38:14.744Z,45.75
2024-01-11T13:40:17.107Z,43.92
2024-01-11T13:42:20.432Z,43.45
2024-01-11T13:44:25.508Z,42.70
2024-01-11T13:46:29.235Z,43.35
2024-01-11T13:48:33.237Z,42.13
2024-01-11T13:50:35.959Z,45.42
2024-01-11T13:52:39.329Z,43.03
2024-01-11T13:54:42.755Z,42.47
2024-01-11T13:56:46.142Z,45.60
2024-01-11T13:58:49.449Z,44.78
2024-01-11T14:00:55.388Z,39.92
2024-01-11T14:02:59.700Z,41.42
2024-01-11T14:05:04.210Z,42.83
2024-01-11T14:07:09.781Z,43.40
2024-01-11T14:09:13.827Z,43.92
2024-01-11T14:11:17.180Z,43.65
2024-01-11T14:13:19.562Z,43.45
2024-01-11T14:15:23.433Z,46.67
2024-01-11T14:17:28.674Z,49.88
2024-01-11T14:19:32.061Z,44.78
2024-01-11T14:21:35.954Z,43.72
2024-01-11T14:23:39.381Z,48.58
2024-01-11T14:25:43.609Z,43.20
2024-01-11T14:27:47.052Z,46.65
2024-01-11T14:29:51.236Z,47.53
2024-01-11T14:31:54.601Z,53.03
2024-01-11T14:34:01.077Z,45.70
2024-01-11T14:36:04.923Z,48.63
2024-01-11T14:38:08.278Z,49.60
2024-01-11T14:40:12.837Z,50.17
2024-01-11T14:42:16.120Z,49.35
2024-01-11T14:44:19.416Z,49.10
2024-01-11T14:46:23.549Z,46.88
2024-01-11T14:48:27.114Z,49.40
2024-01-11T14:50:31.778Z,50.83
2024-01-11T14:52:35.034Z,53.30
2024-01-11T14:54:38.282Z,46.10
2024-01-11T14:56:41.711Z,45.45
2024-01-11T14:58:44.976Z,46.70
2024-01-11T15:00:48.926Z,43.78
2024-01-11T15:02:52.809Z,43.72
2024-01-11T15:04:56.189Z,51.50
2024-01-11T15:07:00.855Z,61.15
2024-01-11T15:09:06.016Z,57.42
2024-01-11T15:11:12.161Z,47.78
2024-01-11T15:13:14.601Z,46.63
2024-01-11T15:15:19.362Z,45.22
2024-01-11T15:17:22.160Z,44.78
2024-01-11T15:19:25.499Z,49.05
2024-01-11T15:21:29.010Z,50.72
2024-01-11T15:23:35.784Z,57.13
2024-01-11T15:25:39.199Z,46.78
2024-01-11T15:27:41.460Z,50.50
2024-01-11T15:29:44.888Z,49.00
2024-01-11T15:31:49.132Z,51.78
2024-01-11T15:33:52.605Z,49.47
2024-01-11T15:35:57.656Z,51.08
2024-01-11T15:38:01.012Z,54.17
2024-01-11T15:40:07.543Z,49.17
2024-01-11T15:42:10.796Z,50.40
2024-01-11T15:44:14.182Z,47.15
2024-01-11T15:46:17.709Z,50.90
2024-01-11T15:48:21.063Z,51.55
2024-01-11T15:50:24.529Z,53.92
2024-01-11T15:52:27.975Z,51.38
2024-01-11T15:54:31.434Z,52.88
2024-01-11T15:56:35.994Z,49.58
2024-01-11T15:58:40.486Z,50.15
2024-01-11T16:00:44.795Z,58.70
2024-01-11T16:02:48.996Z,54.72
2024-01-11T16:04:52.286Z,52.33
2024-01-11T16:06:56.074Z,53.88
2024-01-11T16:08:59.624Z,55.33
2024-01-11T16:11:02.068Z,61.75
2024-01-11T16:13:07.137Z,65.50
2024-01-11T16:15:12.043Z,54.17
2024-01-11T16:17:15.803Z,57.35
2024-01-11T16:19:18.861Z,55.80
2024-01-11T16:23:25.380Z,48.58
2024-01-11T16:25:28.978Z,60.42
2024-01-11T16:27:32.536Z,59.85
2024-01-11T16:29:38.497Z,58.38
2024-01-11T16:31:40.887Z,59.70
2024-01-11T16:33:44.107Z,54.75
2024-01-11T16:35:55.722Z,54.50
2024-01-11T16:38:04.470Z,56.28
2024-01-11T16:40:11.105Z,59.15
2024-01-11T16:42:14.445Z,64.60
2024-01-11T16:44:17.981Z,66.40
2024-01-11T16:46:23.502Z,64.65
2024-01-11T16:48:28.327Z,50.45
2024-01-11T16:50:32.717Z,51.80
2024-01-11T16:52:36.438Z,55.20
2024-01-11T16:54:39.687Z,57.17
2024-01-11T16:56:43.799Z,59.05
2024-01-11T16:58:47.179Z,60.63
2024-01-11T17:00:50.651Z,63.78
2024-01-11T17:02:55.464Z,58.90
2024-01-11T17:04:58.796Z,60.97
2024-01-11T17:07:01.310Z,54.08
2024-01-11T17:09:06.073Z,53.58
2024-01-11T17:11:09.757Z,55.65
2024-01-11T17:13:13.208Z,56.42
2024-01-11T17:15:17.551Z,54.17
2024-01-11T17:17:21.898Z,56.92
2024-01-11T17:19:26.541Z,58.47
2024-01-11T17:21:31.872Z,61.55
2024-01-11T17:23:35.404Z,58.63
2024-01-11T17:25:38.811Z,61.95
2024-01-11T17:27:42.193Z,59.60
2024-01-11T17:29:45.506Z,57.42
2024-01-11T17:31:48.832Z,61.25
2024-01-11T17:33:52.269Z,60.55
2024-01-11T17:35:57.137Z,61.35
2024-01-11T17:38:00.510Z,61.10
2024-01-11T17:40:04.420Z,69.90
2024-01-11T17:42:09.112Z,58.63
2024-01-11T17:44:12.408Z,60.25
2024-01-11T17:46:21.736Z,63.17
2024-01-11T17:48:25.144Z,62.72
2024-01-11T17:50:28.736Z,56.67
2024-01-11T17:52:33.373Z,70.55
2024-01-11T17:54:36.833Z,60.63
2024-01-11T17:56:42.537Z,60.33
2024-01-11T17:58:46.031Z,57.08
2024-01-11T18:00:49.479Z,58.50
2024-01-11T18:02:53.112Z,60.83
2024-01-11T18:04:56.436Z,56.30
2024-01-11T18:06:58.983Z,56.70
2024-01-11T18:09:04.648Z,56.95
2024-01-11T18:11:08.022Z,64.80
2024-01-11T18:13:11.372Z,63.00
2024-01-11T18:15:15.098Z,62.03
2024-01-11T18:17:18.565Z,59.60
2024-01-11T18:19:22.423Z,60.45
2024-01-11T18:21:25.779Z,59.00
2024-01-11T18:23:29.718Z,54.88
2024-01-11T18:25:34.371Z,60.10
2024-01-11T18:27:37.771Z,67.93
2024-01-11T18:29:42.826Z,66.57
2024-01-11T18:31:48.776Z,60.22
2024-01-11T18:33:53.609Z,54.78
2024-01-11T18:35:57.016Z,65.47
2024-01-11T18:38:00.597Z,63.90
2024-01-11T18:40:06.024Z,60.10
2024-01-11T18:42:13.985Z,61.95
2024-01-11T18:44:17.681Z,66.75
2024-01-11T18:46:22.036Z,68.22
2024-01-11T18:48:25.433Z,65.75
2024-01-11T18:50:29.693Z,70.88
2024-01-11T18:52:33.066Z,66.95
2024-01-11T18:54:37.413Z,63.63
2024-01-11T18:56:40.926Z,63.55
2024-01-11T18:58:46.028Z,59.70
2024-01-11T19:00:49.545Z,65.57
2024-01-11T19:02:53.539Z,69.70
2024-01-11T19:04:57.070Z,60.47
2024-01-11T19:07:00.640Z,64.07
2024-01-11T19:09:05.200Z,59.85
2024-01-11T19:11:08.923Z,64.40
2024-01-11T19:13:12.208Z,60.25
2024-01-11T19:15:17.154Z,66.20
2024-01-11T19:17:20.421Z,67.25
2024-01-11T19:19:24.696Z,61.85
2024-01-11T19:21:29.088Z,66.45
2024-01-11T19:23:32.495Z,63.78
2024-01-11T19:25:35.964Z,63.40
2024-01-11T19:27:39.212Z,66.75
2024-01-11T19:29:42.827Z,62.65
2024-01-11T19:31:48.754Z,65.47
2024-01-11T19:33:51.246Z,65.57
2024-01-11T19:35:57.141Z,62.25
2024-01-11T19:38:01.602Z,58.38
2024-01-11T19:40:06.008Z,64.97
2024-01-11T19:42:09.380Z,58.45
2024-01-11T19:44:12.737Z,62.45
2024-01-11T19:46:21.452Z,59.47
2024-01-11T19:48:26.157Z,68.50
2024-01-11T19:50:28.721Z,59.88
2024-01-11T19:52:32.677Z,61.92
2024-01-11T19:54:37.433Z,67.15
2024-01-11T19:56:40.740Z,65.30
2024-01-11T19:58:44.170Z,63.40
2024-01-11T20:00:47.479Z,59.65
2024-01-11T20:02:51.008Z,59.40
2024-01-11T20:04:56.558Z,63.60
2024-01-11T20:06:59.981Z,58.58
2024-01-11T20:09:02.448Z,59.42
2024-01-11T20:11:07.887Z,51.88
2024-01-11T20:13:11.243Z,58.10
2024-01-11T20:15:15.000Z,63.15
2024-01-11T20:17:19.202Z,58.17
2024-01-11T20:19:22.936Z,60.03
2024-01-11T20:21:28.519Z,61.28
2024-01-11T20:23:30.943Z,59.75
2024-01-11T20:25:34.606Z,60.78
2024-01-11T20:27:38.013Z,60.95
2024-01-11T20:29:42.526Z,61.90
2024-01-11T20:31:46.135Z,61.13
2024-01-11T20:33:48.943Z,57.97
2024-01-11T20:35:52.502Z,61.83
2024-01-11T20:37:57.471Z,61.63
2024-01-11T20:40:01.454Z,65.40
2024-01-11T20:42:05.323Z,62.65
2024-01-11T20:44:08.688Z,62.83
2024-01-11T20:46:12.842Z,62.35
2024-01-11T20:48:18.108Z,70.60
2024-01-11T20:50:23.315Z,67.68
2024-01-11T20:52:27.369Z,62.15
2024-01-11T20:54:31.980Z,64.57
2024-01-11T20:56:35.574Z,65.78
2024-01-11T20:58:38.890Z,64.80
2024-01-11T21:00:42.741Z,70.32
2024-01-11T21:02:46.280Z,62.33
2024-01-11T21:04:48.823Z,67.38
2024-01-11T21:06:52.301Z,63.22
2024-01-11T21:08:55.866Z,64.80
2024-01-11T21:11:00.640Z,64.88
2024-01-11T21:13:03.948Z,63.60
2024-01-11T21:15:08.961Z,65.13
2024-01-11T21:17:12.431Z,62.05
2024-01-11T21:19:15.850Z,68.65
2024-01-11T21:21:23.543Z,67.35
2024-01-11T21:23:26.899Z,65.10
2024-01-11T21:25:30.352Z,66.55
2024-01-11T21:27:35.961Z,57.92
2024-01-11T21:29:39.497Z,58.55
2024-01-11T21:31:42.807Z,64.20
2024-01-11T21:33:45.404Z,65.03
2024-01-11T21:35:48.923Z,71.18
2024-01-11T21:37:52.308Z,67.85
2024-01-11T21:39:57.436Z,63.63
2024-01-11T21:42:00.957Z,64.18
2024-01-11T21:44:05.927Z,65.20
2024-01-11T21:46:09.532Z,65.97
2024-01-11T21:48:13.949Z,70.90
2024-01-11T21:50:17.880Z,71.93
2024-01-11T21:52:23.031Z,71.90
2024-01-11T21:54:26.338Z,74.47
2024-01-11T21:56:31.552Z,66.82
2024-01-11T21:58:35.693Z,61.08
2024-01-11T22:00:41.381Z,68.97
2024-01-11T22:02:44.873Z,68.80
2024-01-11T22:04:48.213Z,68.78
2024-01-11T22:06:51.832Z,64.00
2024-01-11T22:08:59.001Z,64.88
2024-01-11T22:11:02.829Z,64.18
2024-01-11T22:13:07.435Z,65.07
2024-01-11T22:15:12.375Z,64.55
2024-01-11T22:17:17.240Z,64.88
2024-01-11T22:19:21.008Z,67.75
2024-01-11T22:21:25.275Z,65.75
2024-01-11T22:23:29.496Z,72.85
2024-01-11T22:25:32.917Z,71.32
2024-01-11T22:27:36.259Z,71.68
2024-01-11T22:29:39.546Z,62.80
2024-01-11T22:31:43.014Z,63.20
2024-01-11T22:33:47.051Z,67.00
2024-01-11T22:35:50.793Z,64.25
2024-01-11T22:37:54.305Z,68.45
2024-01-11T22:39:56.803Z,70.72
2024-01-11T22:42:02.159Z,69.55
2024-01-11T22:44:06.572Z,66.85
2024-01-11T22:46:09.931Z,67.72
2024-01-11T22:48:13.460Z,71.25
2024-01-11T22:50:18.410Z,66.65
2024-01-11T22:52:22.466Z,57.15
2024-01-11T22:54:25.762Z,65.88
2024-01-11T22:56:31.074Z,64.40
2024-01-11T22:58:34.529Z,65.45
2024-01-11T23:00:39.104Z,69.72
2024-01-11T23:02:42.446Z,61.03
2024-01-11T23:04:46.207Z,66.57
2024-01-11T23:06:50.927Z,63.40
2024-01-11T23:08:54.339Z,61.03
2024-01-11T23:10:57.592Z,59.00
2024-01-11T23:13:00.959Z,65.28
2024-01-11T23:15:06.089Z,69.05
2024-01-11T23:17:09.605Z,63.50
2024-01-11T23:19:12.113Z,65.18
2024-01-11T23:21:15.462Z,63.45
2024-01-11T23:25:23.230Z,55.40
2024-01-11T23:27:27.331Z,64.22
2024-01-11T23:29:30.828Z,64.38
2024-01-11T23:31:34.678Z,65.07
2024-01-11T23:33:38.174Z,65.55
2024-01-11T23:35:41.802Z,60.97
2024-01-11T23:37:46.501Z,61.15
2024-01-11T23:39:51.280Z,59.88
2024-01-11T23:41:55.716Z,59.10
2024-01-11T23:43:59.047Z,62.47
2024-01-11T23:46:02.351Z,60.75
2024-01-11T23:48:05.529Z,63.53
2024-01-11T23:50:09.633Z,70.30
2024-01-11T23:52:12.184Z,70.93
2024-01-11T23:54:15.741Z,77.63
2024-01-11T23:56:20.467Z,82.45
2024-01-11T23:58:23.840Z,74.40
